createdAt,value
2022-12-09T00:02:04.198Z,4.25
2022-12-09T00:04:32.248Z,4.55
2022-12-09T00:06:59.749Z,4.16
2022-12-09T00:09:27.373Z,4.28
2022-12-09T00:11:55.276Z,4.36
2022-12-09T00:14:22.783Z,4.72
2022-12-09T00:16:50.437Z,4.08
2022-12-09T00:19:18.306Z,4.06
2022-12-09T00:21:45.793Z,4.08
2022-12-09T00:24:13.891Z,3.64
2022-12-09T00:26:41.935Z,4.13
2022-12-09T00:29:10.869Z,4.31
2022-12-09T00:31:39.413Z,4.48
2022-12-09T00:34:10.899Z,4.10
2022-12-09T00:36:39.067Z,4.18
2022-12-09T00:39:07.007Z,3.98
2022-12-09T00:41:34.589Z,3.83
2022-12-09T00:44:02.001Z,3.78
2022-12-09T00:46:30.361Z,3.88
2022-12-09T00:48:58.113Z,4.22
2022-12-09T00:51:25.957Z,3.79
2022-12-09T00:53:55.995Z,3.90
2022-12-09T00:56:25.376Z,3.82
2022-12-09T00:58:53.260Z,4.03
2022-12-09T01:01:21.176Z,4.07
2022-12-09T01:03:48.975Z,4.51
2022-12-09T01:06:23.242Z,4.26
2022-12-09T01:08:51.395Z,4.42
2022-12-09T01:11:21.548Z,4.69
2022-12-09T01:13:49.892Z,4.25
2022-12-09T01:16:20.493Z,4.01
2022-12-09T01:18:49.907Z,4.45
2022-12-09T01:21:17.829Z,4.21
2022-12-09T01:23:45.370Z,4.12
2022-12-09T01:26:12.825Z,4.10
2022-12-09T01:28:41.001Z,4.03
2022-12-09T01:31:11.181Z,4.28
2022-12-09T01:33:39.257Z,4.39
2022-12-09T01:36:12.376Z,4.50
2022-12-09T01:38:40.171Z,4.16
2022-12-09T01:41:08.209Z,4.09
2022-12-09T01:43:35.735Z,4.17
2022-12-09T01:46:03.317Z,4.37
2022-12-09T01:48:45.015Z,4.17
2022-12-09T01:51:19.625Z,4.62
2022-12-09T01:53:50.210Z,3.82
2022-12-09T01:56:33.456Z,4.11
2022-12-09T01:59:07.229Z,3.67
2022-12-09T02:01:35.015Z,4.05
2022-12-09T02:04:04.018Z,4.32
2022-12-09T02:06:31.582Z,3.68
2022-12-09T02:08:59.643Z,4.13
2022-12-09T02:11:38.707Z,4.42
2022-12-09T02:14:15.262Z,4.49
2022-12-09T02:17:01.815Z,4.22
2022-12-09T02:19:51.148Z,4.26
2022-12-09T02:22:24.765Z,4.76
2022-12-09T02:25:02.759Z,4.43
2022-12-09T02:27:38.253Z,4.48
2022-12-09T02:30:26.879Z,4.47
2022-12-09T02:33:32.132Z,4.50
2022-12-09T02:36:04.108Z,4.55
2022-12-09T02:38:33.459Z,4.26
2022-12-09T02:41:31.100Z,4.16
2022-12-09T02:44:14.293Z,3.98
2022-12-09T02:46:42.868Z,3.99
2022-12-09T02:49:11.543Z,4.06
2022-12-09T02:51:42.707Z,4.14
2022-12-09T02:54:16.018Z,3.95
2022-12-09T02:56:53.540Z,3.95
2022-12-09T02:59:22.190Z,4.09
2022-12-09T03:02:12.513Z,4.00
2022-12-09T03:04:42.925Z,4.42
2022-12-09T03:07:34.758Z,4.15
2022-12-09T03:10:25.814Z,4.41
2022-12-09T03:13:01.080Z,4.84
2022-12-09T03:15:31.898Z,4.46
2022-12-09T03:18:01.797Z,4.79
2022-12-09T03:20:31.069Z,4.07
2022-12-09T03:23:01.388Z,3.85
2022-12-09T03:25:34.981Z,3.96
2022-12-09T03:28:06.185Z,4.44
2022-12-09T03:30:39.779Z,4.52
2022-12-09T03:33:09.488Z,4.77
2022-12-09T03:35:41.425Z,3.76
2022-12-09T03:38:11.510Z,3.93
2022-12-09T03:40:39.544Z,4.44
2022-12-09T03:43:16.383Z,3.69
2022-12-09T03:45:44.192Z,4.25
2022-12-09T03:48:12.172Z,4.43
2022-12-09T03:50:43.225Z,4.21
2022-12-09T03:53:14.829Z,4.32
2022-12-09T03:55:55.599Z,4.22
2022-12-09T03:58:23.585Z,3.93
2022-12-09T04:00:51.860Z,3.85
2022-12-09T04:03:19.920Z,3.42
2022-12-09T04:05:47.787Z,3.92
2022-12-09T04:08:15.235Z,4.12
2022-12-09T04:10:43.029Z,3.90
2022-12-09T04:13:10.535Z,3.93
2022-12-09T04:15:38.090Z,4.28
2022-12-09T04:18:06.469Z,4.09
2022-12-09T04:20:33.970Z,4.27
2022-12-09T04:23:01.367Z,4.09
2022-12-09T04:25:29.182Z,3.89
2022-12-09T04:27:57.269Z,4.13
2022-12-09T04:30:24.775Z,4.24
2022-12-09T04:32:52.589Z,3.99
2022-12-09T04:35:20.016Z,3.89
2022-12-09T04:37:47.403Z,4.13
2022-12-09T04:40:21.226Z,4.21
2022-12-09T04:42:51.233Z,4.19
2022-12-09T04:45:18.932Z,3.97
2022-12-09T04:47:46.649Z,3.55
2022-12-09T04:50:14.443Z,3.99
2022-12-09T04:52:43.187Z,4.35
2022-12-09T04:55:13.188Z,4.38
2022-12-09T04:57:40.600Z,4.75
2022-12-09T05:00:10.582Z,4.76
2022-12-09T05:02:38.922Z,4.52
2022-12-09T05:05:07.067Z,4.37
2022-12-09T05:07:35.061Z,4.17
2022-12-09T05:10:03.061Z,4.46
2022-12-09T05:12:32.926Z,4.24
2022-12-09T05:15:00.818Z,4.44
2022-12-09T05:17:28.307Z,4.29
2022-12-09T05:19:55.855Z,4.28
2022-12-09T05:22:23.900Z,4.14
2022-12-09T05:24:51.425Z,4.30
2022-12-09T05:27:19.102Z,4.11
2022-12-09T05:29:46.965Z,4.13
2022-12-09T05:32:14.692Z,3.95
2022-12-09T05:34:42.657Z,4.29
2022-12-09T05:37:14.685Z,3.84
2022-12-09T05:39:42.468Z,3.81
2022-12-09T05:42:10.551Z,4.37
2022-12-09T05:44:38.002Z,4.21
2022-12-09T05:47:05.546Z,4.48
2022-12-09T05:49:34.751Z,4.41
2022-12-09T05:52:02.885Z,4.41
2022-12-09T05:54:30.982Z,4.28
2022-12-09T05:57:01.297Z,4.25
2022-12-09T05:59:28.850Z,3.98
2022-12-09T06:01:56.802Z,4.10
2022-12-09T06:04:24.699Z,4.06
2022-12-09T06:06:52.789Z,3.87
2022-12-09T06:09:20.386Z,3.56
2022-12-09T06:11:48.486Z,4.20
2022-12-09T06:14:16.176Z,4.06
2022-12-09T06:16:44.082Z,3.41
2022-12-09T06:19:12.818Z,4.00
2022-12-09T06:21:41.076Z,4.28
2022-12-09T06:24:08.775Z,4.41
2022-12-09T06:26:36.905Z,4.37
2022-12-09T06:29:04.408Z,3.89
2022-12-09T06:31:32.487Z,4.16
2022-12-09T06:34:01.107Z,4.10
2022-12-09T06:36:30.387Z,4.46
2022-12-09T06:39:03.103Z,4.40
2022-12-09T06:41:35.825Z,4.62
2022-12-09T06:44:03.524Z,4.02
2022-12-09T06:46:31.348Z,4.16
2022-12-09T06:48:59.493Z,3.93
2022-12-09T06:51:27.463Z,3.98
2022-12-09T06:53:55.370Z,4.20
2022-12-09T06:56:23.419Z,4.16
2022-12-09T06:58:51.289Z,4.26
2022-12-09T07:01:24.776Z,4.68
2022-12-09T07:03:55.736Z,4.12
2022-12-09T07:06:40.281Z,4.27
2022-12-09T07:09:11.596Z,4.55
2022-12-09T07:11:40.466Z,4.32
2022-12-09T07:14:08.884Z,3.94
2022-12-09T07:16:36.731Z,4.14
2022-12-09T07:19:04.565Z,4.55
2022-12-09T07:21:33.306Z,4.84
2022-12-09T07:24:02.942Z,5.09
2022-12-09T07:26:32.773Z,4.35
2022-12-09T07:29:05.210Z,4.25
2022-12-09T07:31:33.610Z,4.96
2022-12-09T07:34:02.297Z,5.08
2022-12-09T07:36:32.202Z,5.55
2022-12-09T07:39:02.540Z,5.41
2022-12-09T07:41:30.365Z,5.30
2022-12-09T07:43:58.002Z,4.76
2022-12-09T07:46:27.571Z,4.50
2022-12-09T07:48:57.328Z,5.11
2022-12-09T07:51:25.408Z,4.42
2022-12-09T07:53:53.789Z,4.87
2022-12-09T07:56:22.367Z,4.29
2022-12-09T07:58:53.361Z,4.40
2022-12-09T08:01:24.568Z,4.62
2022-12-09T08:03:52.471Z,4.83
2022-12-09T08:06:22.656Z,4.86
2022-12-09T08:08:50.620Z,4.75
2022-12-09T08:11:25.382Z,4.74
2022-12-09T08:13:54.112Z,5.24
2022-12-09T08:16:22.820Z,5.07
2022-12-09T08:18:51.808Z,5.10
2022-12-09T08:21:25.032Z,5.14
2022-12-09T08:23:55.100Z,5.17
2022-12-09T08:26:25.519Z,4.84
2022-12-09T08:28:53.587Z,5.13
2022-12-09T08:31:23.754Z,5.39
2022-12-09T08:33:53.028Z,5.08
2022-12-09T08:36:23.909Z,5.59
2022-12-09T08:38:51.790Z,5.21
2022-12-09T08:41:38.209Z,4.92
2022-12-09T08:44:18.791Z,4.73
2022-12-09T08:46:48.570Z,4.61
2022-12-09T08:49:22.027Z,5.14
2022-12-09T08:51:51.732Z,5.37
2022-12-09T08:54:20.068Z,5.11
2022-12-09T08:56:50.035Z,4.55
2022-12-09T08:59:17.887Z,4.87
2022-12-09T09:01:45.867Z,5.17
2022-12-09T09:04:16.316Z,4.90
2022-12-09T09:06:45.953Z,4.70
2022-12-09T09:09:15.105Z,4.58
2022-12-09T09:11:43.931Z,4.92
2022-12-09T09:14:12.606Z,4.51
2022-12-09T09:16:43.147Z,4.93
2022-12-09T09:19:18.505Z,5.10
2022-12-09T09:21:46.491Z,4.92
2022-12-09T09:24:18.154Z,4.85
2022-12-09T09:26:47.110Z,5.43
2022-12-09T09:29:16.720Z,5.11
2022-12-09T09:31:44.882Z,5.35
2022-12-09T09:34:14.211Z,5.50
2022-12-09T09:36:42.223Z,5.12
2022-12-09T09:39:10.459Z,5.27
2022-12-09T09:42:00.441Z,5.30
2022-12-09T09:44:34.790Z,5.50
2022-12-09T09:47:05.719Z,4.68
2022-12-09T09:49:56.376Z,5.26
2022-12-09T09:52:26.808Z,4.79
2022-12-09T09:54:56.332Z,5.46
2022-12-09T09:57:41.150Z,4.71
2022-12-09T10:00:26.652Z,5.26
2022-12-09T10:03:04.953Z,4.94
2022-12-09T10:05:35.886Z,5.25
2022-12-09T10:08:29.052Z,5.22
2022-12-09T10:11:04.832Z,5.20
2022-12-09T10:13:52.515Z,5.50
2022-12-09T10:16:27.225Z,5.23
2022-12-09T10:19:02.616Z,4.85
2022-12-09T10:21:38.725Z,4.84
2022-12-09T10:24:20.637Z,4.62
2022-12-09T10:26:58.916Z,4.92
2022-12-09T10:29:49.359Z,4.65
2022-12-09T10:32:20.558Z,4.32
2022-12-09T10:34:48.924Z,4.41
2022-12-09T10:37:33.188Z,4.64
2022-12-09T10:40:18.090Z,4.72
2022-12-09T10:43:08.089Z,4.61
2022-12-09T10:46:16.778Z,4.61
2022-12-09T10:48:56.224Z,4.14
2022-12-09T10:51:29.906Z,4.47
2022-12-09T10:54:19.314Z,4.21
2022-12-09T10:57:23.499Z,4.24
2022-12-09T11:00:22.878Z,4.66
2022-12-09T11:02:54.838Z,4.71
2022-12-09T11:05:28.660Z,4.62
2022-12-09T11:07:58.377Z,4.39
2022-12-09T11:10:28.538Z,4.74
2022-12-09T11:13:03.801Z,4.57
2022-12-09T11:15:39.005Z,4.75
2022-12-09T11:18:23.882Z,4.96
2022-12-09T11:21:00.971Z,4.79
2022-12-09T11:23:29.957Z,4.85
2022-12-09T11:26:01.857Z,4.86
2022-12-09T11:28:38.440Z,4.87
2022-12-09T11:31:31.870Z,4.65
2022-12-09T11:34:04.468Z,4.60
2022-12-09T11:36:36.775Z,4.90
2022-12-09T11:39:16.251Z,4.98
2022-12-09T11:42:16.123Z,5.07
2022-12-09T11:44:56.725Z,4.99
2022-12-09T11:48:20.318Z,4.86
2022-12-09T11:50:33.176Z,4.78
2022-12-09T11:53:13.032Z,4.81
2022-12-09T11:55:46.388Z,4.92
2022-12-09T11:58:23.684Z,4.98
2022-12-09T12:00:57.066Z,5.02
2022-12-09T12:03:41.279Z,4.84
2022-12-09T12:06:24.439Z,5.02
2022-12-09T12:09:00.991Z,4.81
2022-12-09T12:11:34.694Z,4.85
2022-12-09T12:14:15.282Z,4.56
2022-12-09T12:16:52.772Z,4.58
2022-12-09T12:19:39.775Z,4.84
2022-12-09T12:22:25.412Z,5.15
2022-12-09T12:25:30.138Z,4.76
2022-12-09T12:28:00.467Z,4.93
2022-12-09T12:30:56.918Z,4.90
2022-12-09T12:34:16.160Z,4.80
2022-12-09T12:36:44.665Z,4.75
2022-12-09T12:39:42.891Z,4.84
2022-12-09T12:43:04.486Z,4.88
2022-12-09T12:45:58.295Z,4.94
2022-12-09T12:49:03.132Z,4.77
2022-12-09T12:51:43.240Z,4.84
2022-12-09T12:54:26.451Z,4.73
2022-12-09T12:57:02.656Z,4.57
2022-12-09T12:59:40.637Z,4.43
2022-12-09T13:02:33.020Z,4.45
2022-12-09T13:05:04.397Z,4.58
2022-12-09T13:07:34.173Z,4.80
2022-12-09T13:10:21.712Z,4.59
2022-12-09T13:12:54.027Z,4.39
2022-12-09T13:15:25.771Z,4.71
2022-12-09T13:17:53.991Z,4.40
2022-12-09T13:20:28.737Z,4.35
2022-12-09T13:23:17.747Z,4.46
2022-12-09T13:26:18.848Z,4.51
2022-12-09T13:28:54.798Z,4.68
2022-12-09T13:31:28.316Z,4.82
2022-12-09T13:34:14.626Z,4.81
2022-12-09T13:36:47.402Z,4.79
2022-12-09T13:39:39.529Z,4.76
2022-12-09T13:42:46.346Z,4.45
2022-12-09T13:45:34.114Z,4.73
2022-12-09T13:48:08.695Z,4.80
2022-12-09T13:50:44.814Z,4.55
2022-12-09T13:53:21.634Z,4.70
2022-12-09T13:56:07.954Z,4.57
2022-12-09T13:59:03.050Z,4.83
2022-12-09T14:01:48.792Z,4.78
2022-12-09T14:04:26.591Z,4.60
2022-12-09T14:07:26.316Z,4.59
2022-12-09T14:09:55.380Z,4.50
2022-12-09T14:12:25.631Z,4.39
2022-12-09T14:14:54.565Z,4.46
2022-12-09T14:17:25.099Z,4.31
2022-12-09T14:19:52.375Z,4.69
2022-12-09T14:22:22.492Z,4.75
2022-12-09T14:24:54.905Z,4.79
2022-12-09T14:27:30.186Z,4.85
2022-12-09T14:30:00.081Z,5.24
2022-12-09T14:32:37.821Z,4.77
2022-12-09T14:35:06.309Z,4.49
2022-12-09T14:37:50.086Z,4.56
2022-12-09T14:40:39.178Z,4.41
2022-12-09T14:43:31.314Z,4.74
2022-12-09T14:46:04.227Z,4.47
2022-12-09T14:48:34.685Z,4.51
2022-12-09T14:51:20.374Z,4.36
2022-12-09T14:54:01.806Z,4.45
2022-12-09T14:56:30.969Z,4.16
2022-12-09T14:59:05.878Z,4.28
2022-12-09T15:01:59.111Z,4.51
2022-12-09T15:04:32.760Z,4.36
2022-12-09T15:07:06.624Z,4.35
2022-12-09T15:09:34.408Z,4.81
2022-12-09T15:12:02.267Z,4.45
2022-12-09T15:14:29.713Z,4.43
2022-12-09T15:16:58.372Z,4.49
2022-12-09T15:19:58.773Z,4.13
2022-12-09T15:22:33.168Z,4.64
2022-12-09T15:25:03.412Z,4.71
2022-12-09T15:27:31.573Z,4.51
2022-12-09T15:29:59.417Z,4.75
2022-12-09T15:32:29.766Z,4.84
2022-12-09T15:35:16.783Z,4.33
2022-12-09T15:37:45.806Z,4.55
2022-12-09T15:40:18.111Z,4.57
2022-12-09T15:42:51.124Z,4.15
2022-12-09T15:45:22.355Z,4.69
2022-12-09T15:48:12.564Z,4.52
2022-12-09T15:50:46.301Z,4.76
2022-12-09T15:53:23.269Z,4.34
2022-12-09T15:56:36.045Z,4.80
2022-12-09T15:59:17.572Z,4.67
2022-12-09T16:01:54.371Z,4.77
2022-12-09T16:04:27.796Z,5.00
2022-12-09T16:06:57.073Z,4.93
2022-12-09T16:09:24.931Z,4.79
2022-12-09T16:11:56.345Z,4.78
2022-12-09T16:14:26.749Z,4.99
2022-12-09T16:17:02.455Z,4.62
2022-12-09T16:19:41.148Z,4.48
2022-12-09T16:22:29.595Z,4.50
2022-12-09T16:25:22.458Z,4.76
2022-12-09T16:28:00.930Z,4.96
2022-12-09T16:30:32.908Z,4.76
2022-12-09T16:33:03.054Z,4.68
2022-12-09T16:35:45.357Z,4.69
2022-12-09T16:38:19.800Z,4.75
2022-12-09T16:40:48.769Z,4.77
2022-12-09T16:43:17.851Z,4.89
2022-12-09T16:46:01.499Z,4.76
2022-12-09T16:48:31.291Z,4.99
2022-12-09T16:51:12.037Z,4.88
2022-12-09T16:53:45.857Z,5.28
2022-12-09T16:56:23.263Z,5.26
2022-12-09T16:58:52.523Z,5.00
2022-12-09T17:01:22.505Z,4.65
2022-12-09T17:03:54.523Z,4.67
2022-12-09T17:06:23.776Z,4.80
2022-12-09T17:08:52.212Z,5.10
2022-12-09T17:11:22.322Z,5.00
2022-12-09T17:13:51.547Z,4.91
2022-12-09T17:16:27.103Z,4.72
2022-12-09T17:18:55.679Z,4.93
2022-12-09T17:21:25.392Z,4.98
2022-12-09T17:23:54.349Z,4.93
2022-12-09T17:26:23.911Z,4.96
2022-12-09T17:28:58.256Z,5.09
2022-12-09T17:31:30.836Z,5.26
2022-12-09T17:33:59.086Z,5.11
2022-12-09T17:36:27.463Z,5.04
2022-12-09T17:39:00.399Z,5.13
2022-12-09T17:41:29.183Z,5.50
2022-12-09T17:44:05.680Z,5.23
2022-12-09T17:46:34.319Z,5.19
2022-12-09T17:49:04.779Z,5.26
2022-12-09T17:51:36.289Z,5.07
2022-12-09T17:54:08.435Z,5.41
2022-12-09T17:56:36.121Z,5.41
2022-12-09T17:59:08.792Z,5.60
2022-12-09T18:01:37.690Z,5.40
2022-12-09T18:04:09.851Z,5.50
2022-12-09T18:06:43.282Z,5.38
2022-12-09T18:09:13.416Z,5.42
2022-12-09T18:11:41.589Z,5.65
2022-12-09T18:14:10.299Z,5.64
2022-12-09T18:16:40.855Z,5.35
2022-12-09T18:19:13.520Z,5.64
2022-12-09T18:21:41.860Z,5.73
2022-12-09T18:24:09.900Z,5.88
2022-12-09T18:26:41.561Z,5.33
2022-12-09T18:29:13.017Z,5.47
2022-12-09T18:31:41.607Z,5.76
2022-12-09T18:34:10.596Z,5.94
2022-12-09T18:36:38.324Z,5.62
2022-12-09T18:39:06.831Z,6.04
2022-12-09T18:41:35.386Z,5.93
2022-12-09T18:44:09.802Z,5.91
2022-12-09T18:46:45.015Z,5.65
2022-12-09T18:49:14.323Z,5.76
2022-12-09T18:51:45.918Z,5.61
2022-12-09T18:54:20.698Z,5.41
2022-12-09T18:56:48.757Z,5.49
2022-12-09T18:59:17.856Z,5.29
2022-12-09T19:01:50.997Z,5.39
2022-12-09T19:04:22.587Z,5.11
2022-12-09T19:06:53.205Z,5.53
2022-12-09T19:09:24.893Z,5.58
2022-12-09T19:11:54.910Z,5.80
2022-12-09T19:14:24.552Z,5.69
2022-12-09T19:16:55.274Z,5.58
2022-12-09T19:19:26.525Z,5.73
2022-12-09T19:21:55.627Z,5.65
2022-12-09T19:24:26.146Z,5.51
2022-12-09T19:26:57.193Z,5.61
2022-12-09T19:29:28.463Z,5.81
2022-12-09T19:31:58.141Z,6.01
2022-12-09T19:34:29.759Z,5.89
2022-12-09T19:37:00.873Z,5.93
2022-12-09T19:39:31.930Z,5.89
2022-12-09T19:42:01.152Z,5.96
2022-12-09T19:44:59.396Z,5.83
2022-12-09T19:47:20.099Z,6.11
2022-12-09T19:49:49.902Z,5.92
2022-12-09T19:52:18.902Z,5.93
2022-12-09T19:54:49.001Z,5.73
2022-12-09T19:57:18.919Z,5.97
2022-12-09T19:59:47.696Z,5.81
2022-12-09T20:02:16.190Z,5.60
2022-12-09T20:04:49.063Z,5.84
2022-12-09T20:07:19.536Z,5.91
2022-12-09T20:09:50.329Z,5.98
2022-12-09T20:12:19.615Z,6.32
2022-12-09T20:14:48.927Z,6.09
2022-12-09T20:17:17.793Z,5.55
2022-12-09T20:19:45.935Z,5.68
2022-12-09T20:22:20.011Z,5.83
2022-12-09T20:24:48.709Z,6.05
2022-12-09T20:27:17.901Z,5.70
2022-12-09T20:29:46.519Z,5.61
2022-12-09T20:32:15.241Z,6.04
2022-12-09T20:34:44.417Z,5.72
2022-12-09T20:37:13.111Z,5.67
2022-12-09T20:39:41.661Z,6.30
2022-12-09T20:42:10.274Z,6.38
2022-12-09T20:44:38.445Z,6.14
2022-12-09T20:47:08.141Z,5.81
2022-12-09T20:49:38.014Z,6.18
2022-12-09T20:52:05.962Z,6.21
2022-12-09T20:54:40.099Z,6.07
2022-12-09T20:57:10.622Z,5.82
2022-12-09T20:59:38.950Z,6.57
2022-12-09T21:02:13.452Z,6.40
2022-12-09T21:04:42.600Z,6.64
2022-12-09T21:07:11.182Z,6.62
2022-12-09T21:09:39.446Z,6.72
2022-12-09T21:12:08.307Z,7.06
2022-12-09T21:14:37.418Z,6.52
2022-12-09T21:17:05.818Z,6.51
2022-12-09T21:19:34.946Z,7.04
2022-12-09T21:22:04.978Z,7.07
2022-12-09T21:24:34.339Z,7.49
2022-12-09T21:27:04.947Z,7.17
2022-12-09T21:29:33.524Z,7.07
2022-12-09T21:32:02.534Z,6.95
2022-12-09T21:34:31.777Z,7.26
2022-12-09T21:37:00.218Z,6.97
2022-12-09T21:39:29.649Z,7.48
2022-12-09T21:41:58.792Z,6.18
2022-12-09T21:44:27.559Z,7.08
2022-12-09T21:46:55.520Z,6.55
2022-12-09T21:49:24.372Z,7.05
2022-12-09T21:51:52.395Z,7.49
2022-12-09T21:54:19.744Z,7.56
2022-12-09T21:56:47.437Z,7.85
2022-12-09T21:59:14.899Z,7.69
2022-12-09T22:01:43.023Z,7.81
2022-12-09T22:04:12.935Z,7.34
2022-12-09T22:06:40.472Z,7.79
2022-12-09T22:09:09.791Z,7.59
2022-12-09T22:11:38.438Z,8.05
2022-12-09T22:14:07.576Z,7.44
2022-12-09T22:16:40.725Z,7.69
2022-12-09T22:19:12.981Z,7.55
2022-12-09T22:21:40.364Z,7.88
2022-12-09T22:24:09.271Z,8.06
2022-12-09T22:26:36.987Z,8.08
2022-12-09T22:29:05.346Z,8.16
2022-12-09T22:31:36.411Z,8.41
2022-12-09T22:34:15.218Z,8.53
2022-12-09T22:36:43.338Z,8.66
2022-12-09T22:39:14.366Z,8.69
2022-12-09T22:41:43.442Z,8.62
2022-12-09T22:44:15.498Z,8.68
2022-12-09T22:46:43.051Z,8.67
2022-12-09T22:49:12.781Z,8.65
2022-12-09T22:51:40.163Z,8.38
2022-12-09T22:54:08.383Z,8.96
2022-12-09T22:56:38.154Z,8.29
2022-12-09T22:59:05.762Z,9.02
2022-12-09T23:01:35.635Z,8.76
2022-12-09T23:04:04.960Z,8.69
2022-12-09T23:06:35.425Z,8.74
2022-12-09T23:09:03.736Z,8.79
2022-12-09T23:11:31.627Z,8.72
2022-12-09T23:14:00.110Z,8.54
2022-12-09T23:16:28.363Z,8.56
2022-12-09T23:18:57.226Z,8.49
2022-12-09T23:21:27.462Z,8.69
2022-12-09T23:23:58.319Z,8.39
2022-12-09T23:26:28.107Z,8.18
2022-12-09T23:28:58.055Z,8.21
2022-12-09T23:31:29.465Z,8.70
2022-12-09T23:33:57.509Z,8.82
2022-12-09T23:36:27.508Z,8.55
2022-12-09T23:38:55.086Z,8.65
2022-12-09T23:41:23.666Z,8.65
2022-12-09T23:43:51.960Z,8.49
2022-12-09T23:46:25.014Z,8.56
2022-12-09T23:48:54.059Z,8.45
2022-12-09T23:51:25.371Z,8.85
2022-12-09T23:53:55.826Z,8.73
2022-12-09T23:56:25.675Z,8.97
2022-12-09T23:58:55.520Z,8.91
